sensor_id;sensor_type;location;lat;lon;timestamp;temperature;humidity
5027;DHT22;2532;52.480;13.354;2022-08-01T00:01:46;23.70;77.40
5027;DHT22;2532;52.480;13.354;2022-08-01T00:04:13;23.50;78.00
5027;DHT22;2532;52.480;13.354;2022-08-01T00:06:39;23.50;78.50
5027;DHT22;2532;52.480;13.354;2022-08-01T00:09:06;23.50;79.20
5027;DHT22;2532;52.480;13.354;2022-08-01T00:11:33;23.50;79.70
5027;DHT22;2532;52.480;13.354;2022-08-01T00:14:01;23.40;80.60
5027;DHT22;2532;52.480;13.354;2022-08-01T00:16:28;23.40;81.90
5027;DHT22;2532;52.480;13.354;2022-08-01T00:18:55;23.30;83.00
5027;DHT22;2532;52.480;13.354;2022-08-01T00:21:22;23.20;83.90
5027;DHT22;2532;52.480;13.354;2022-08-01T00:23:49;23.20;84.70
5027;DHT22;2532;52.480;13.354;2022-08-01T00:26:16;23.10;85.10
5027;DHT22;2532;52.480;13.354;2022-08-01T00:28:42;23.10;85.30
5027;DHT22;2532;52.480;13.354;2022-08-01T00:31:11;23.10;85.40
5027;DHT22;2532;52.480;13.354;2022-08-01T00:33:37;23.10;85.50
5027;DHT22;2532;52.480;13.354;2022-08-01T00:36:04;23.10;85.60
5027;DHT22;2532;52.480;13.354;2022-08-01T00:38:31;23.00;85.90
5027;DHT22;2532;52.480;13.354;2022-08-01T00:40:58;23.00;86.20
5027;DHT22;2532;52.480;13.354;2022-08-01T00:43:25;23.00;86.60
5027;DHT22;2532;52.480;13.354;2022-08-01T00:45:51;22.90;87.10
5027;DHT22;2532;52.480;13.354;2022-08-01T00:48:20;22.90;87.50
5027;DHT22;2532;52.480;13.354;2022-08-01T00:50:47;22.90;88.10
5027;DHT22;2532;52.480;13.354;2022-08-01T00:53:14;22.80;89.00
5027;DHT22;2532;52.480;13.354;2022-08-01T00:55:41;22.70;89.50
5027;DHT22;2532;52.480;13.354;2022-08-01T00:58:07;22.70;90.00
5027;DHT22;2532;52.480;13.354;2022-08-01T01:00:35;22.60;90.30
5027;DHT22;2532;52.480;13.354;2022-08-01T01:03:02;22.50;90.50
5027;DHT22;2532;52.480;13.354;2022-08-01T01:05:37;22.40;90.70
5027;DHT22;2532;52.480;13.354;2022-08-01T01:08:11;22.50;90.80
5027;DHT22;2532;52.480;13.354;2022-08-01T01:10:45;22.40;90.90
5027;DHT22;2532;52.480;13.354;2022-08-01T01:13:20;22.40;91.00
5027;DHT22;2532;52.480;13.354;2022-08-01T01:15:51;22.40;91.00
5027;DHT22;2532;52.480;13.354;2022-08-01T01:18:24;22.40;91.20
5027;DHT22;2532;52.480;13.354;2022-08-01T01:21:00;22.40;91.50
5027;DHT22;2532;52.480;13.354;2022-08-01T01:23:44;22.50;91.30
5027;DHT22;2532;52.480;13.354;2022-08-01T01:26:30;22.50;91.20
5027;DHT22;2532;52.480;13.354;2022-08-01T01:29:06;22.60;91.30
5027;DHT22;2532;52.480;13.354;2022-08-01T01:31:40;22.60;91.20
5027;DHT22;2532;52.480;13.354;2022-08-01T01:34:09;22.60;91.10
5027;DHT22;2532;52.480;13.354;2022-08-01T01:36:38;22.70;91.00
5027;DHT22;2532;52.480;13.354;2022-08-01T01:39:06;22.70;90.90
5027;DHT22;2532;52.480;13.354;2022-08-01T01:41:35;22.70;90.80
5027;DHT22;2532;52.480;13.354;2022-08-01T01:44:04;22.70;90.90
5027;DHT22;2532;52.480;13.354;2022-08-01T01:46:32;22.70;91.00
5027;DHT22;2532;52.480;13.354;2022-08-01T01:49:00;22.70;91.10
5027;DHT22;2532;52.480;13.354;2022-08-01T01:51:28;22.70;91.30
5027;DHT22;2532;52.480;13.354;2022-08-01T01:53:57;22.60;91.40
5027;DHT22;2532;52.480;13.354;2022-08-01T01:56:25;22.60;91.60
5027;DHT22;2532;52.480;13.354;2022-08-01T01:58:55;22.50;91.60
5027;DHT22;2532;52.480;13.354;2022-08-01T02:01:27;22.50;91.70
5027;DHT22;2532;52.480;13.354;2022-08-01T02:03:55;22.50;91.70
5027;DHT22;2532;52.480;13.354;2022-08-01T02:06:23;22.50;91.80
5027;DHT22;2532;52.480;13.354;2022-08-01T02:08:52;22.50;91.90
5027;DHT22;2532;52.480;13.354;2022-08-01T02:11:20;22.50;91.90
5027;DHT22;2532;52.480;13.354;2022-08-01T02:13:52;22.40;92.00
5027;DHT22;2532;52.480;13.354;2022-08-01T02:16:21;22.50;92.10
5027;DHT22;2532;52.480;13.354;2022-08-01T02:18:50;22.50;92.20
5027;DHT22;2532;52.480;13.354;2022-08-01T02:21:23;22.40;92.20
5027;DHT22;2532;52.480;13.354;2022-08-01T02:23:51;22.40;92.30
5027;DHT22;2532;52.480;13.354;2022-08-01T02:26:19;22.40;92.30
5027;DHT22;2532;52.480;13.354;2022-08-01T02:28:52;22.40;92.40
5027;DHT22;2532;52.480;13.354;2022-08-01T02:31:21;22.40;92.50
5027;DHT22;2532;52.480;13.354;2022-08-01T02:33:58;22.30;92.60
5027;DHT22;2532;52.480;13.354;2022-08-01T02:36:29;22.30;92.70
5027;DHT22;2532;52.480;13.354;2022-08-01T02:38:57;22.20;92.80
5027;DHT22;2532;52.480;13.354;2022-08-01T02:41:26;22.20;92.90
5027;DHT22;2532;52.480;13.354;2022-08-01T02:43:56;22.20;93.10
5027;DHT22;2532;52.480;13.354;2022-08-01T02:46:28;22.20;93.30
5027;DHT22;2532;52.480;13.354;2022-08-01T02:48:58;22.10;93.40
5027;DHT22;2532;52.480;13.354;2022-08-01T02:51:26;22.10;93.50
5027;DHT22;2532;52.480;13.354;2022-08-01T02:53:55;22.10;93.50
5027;DHT22;2532;52.480;13.354;2022-08-01T02:56:24;22.10;93.50
5027;DHT22;2532;52.480;13.354;2022-08-01T02:59:02;22.10;93.60
5027;DHT22;2532;52.480;13.354;2022-08-01T03:01:29;22.10;93.60
5027;DHT22;2532;52.480;13.354;2022-08-01T03:03:59;22.10;93.70
5027;DHT22;2532;52.480;13.354;2022-08-01T03:06:26;22.10;93.70
5027;DHT22;2532;52.480;13.354;2022-08-01T03:08:54;22.10;93.60
5027;DHT22;2532;52.480;13.354;2022-08-01T03:11:22;22.20;93.60
5027;DHT22;2532;52.480;13.354;2022-08-01T03:13:50;22.20;93.70
5027;DHT22;2532;52.480;13.354;2022-08-01T03:16:19;22.10;93.70
5027;DHT22;2532;52.480;13.354;2022-08-01T03:18:48;22.10;93.80
5027;DHT22;2532;52.480;13.354;2022-08-01T03:21:17;22.10;93.90
5027;DHT22;2532;52.480;13.354;2022-08-01T03:23:45;22.10;93.90
5027;DHT22;2532;52.480;13.354;2022-08-01T03:26:14;22.10;94.00
5027;DHT22;2532;52.480;13.354;2022-08-01T03:28:41;22.10;94.00
5027;DHT22;2532;52.480;13.354;2022-08-01T03:31:12;22.10;93.90
5027;DHT22;2532;52.480;13.354;2022-08-01T03:33:40;22.20;93.90
5027;DHT22;2532;52.480;13.354;2022-08-01T03:36:09;22.10;94.00
5027;DHT22;2532;52.480;13.354;2022-08-01T03:38:39;22.10;94.10
5027;DHT22;2532;52.480;13.354;2022-08-01T03:41:11;22.10;94.10
5027;DHT22;2532;52.480;13.354;2022-08-01T03:43:43;22.10;94.20
5027;DHT22;2532;52.480;13.354;2022-08-01T03:46:19;22.10;94.30
5027;DHT22;2532;52.480;13.354;2022-08-01T03:48:48;22.10;94.30
5027;DHT22;2532;52.480;13.354;2022-08-01T03:51:17;22.10;94.40
5027;DHT22;2532;52.480;13.354;2022-08-01T03:53:48;22.10;94.40
5027;DHT22;2532;52.480;13.354;2022-08-01T03:56:18;22.10;94.40
5027;DHT22;2532;52.480;13.354;2022-08-01T03:58:46;22.10;94.50
5027;DHT22;2532;52.480;13.354;2022-08-01T04:01:13;22.00;94.50
5027;DHT22;2532;52.480;13.354;2022-08-01T04:03:41;22.10;94.60
5027;DHT22;2532;52.480;13.354;2022-08-01T04:06:08;22.00;94.60
5027;DHT22;2532;52.480;13.354;2022-08-01T04:08:36;22.00;94.60
5027;DHT22;2532;52.480;13.354;2022-08-01T04:11:05;22.00;94.60
5027;DHT22;2532;52.480;13.354;2022-08-01T04:13:33;22.10;94.70
5027;DHT22;2532;52.480;13.354;2022-08-01T04:16:00;22.10;94.70
5027;DHT22;2532;52.480;13.354;2022-08-01T04:18:27;22.10;94.70
5027;DHT22;2532;52.480;13.354;2022-08-01T04:20:54;22.10;94.90
5027;DHT22;2532;52.480;13.354;2022-08-01T04:23:23;22.10;95.00
5027;DHT22;2532;52.480;13.354;2022-08-01T04:25:51;22.10;95.00
5027;DHT22;2532;52.480;13.354;2022-08-01T04:28:21;22.10;95.20
5027;DHT22;2532;52.480;13.354;2022-08-01T04:30:50;22.10;95.20
5027;DHT22;2532;52.480;13.354;2022-08-01T04:33:19;22.10;95.30
5027;DHT22;2532;52.480;13.354;2022-08-01T04:35:47;22.10;95.40
5027;DHT22;2532;52.480;13.354;2022-08-01T04:38:20;22.10;95.70
5027;DHT22;2532;52.480;13.354;2022-08-01T04:40:48;22.00;95.80
5027;DHT22;2532;52.480;13.354;2022-08-01T04:43:17;22.00;95.90
5027;DHT22;2532;52.480;13.354;2022-08-01T04:45:46;22.00;96.00
5027;DHT22;2532;52.480;13.354;2022-08-01T04:48:15;22.00;96.10
5027;DHT22;2532;52.480;13.354;2022-08-01T04:50:43;22.00;96.20
5027;DHT22;2532;52.480;13.354;2022-08-01T04:53:13;21.90;96.20
5027;DHT22;2532;52.480;13.354;2022-08-01T04:55:42;21.90;96.30
5027;DHT22;2532;52.480;13.354;2022-08-01T04:58:10;21.90;96.50
5027;DHT22;2532;52.480;13.354;2022-08-01T05:00:36;21.80;96.70
5027;DHT22;2532;52.480;13.354;2022-08-01T05:03:04;21.80;96.80
5027;DHT22;2532;52.480;13.354;2022-08-01T05:05:31;21.70;96.90
5027;DHT22;2532;52.480;13.354;2022-08-01T05:07:59;21.70;97.00
5027;DHT22;2532;52.480;13.354;2022-08-01T05:10:26;21.70;97.10
5027;DHT22;2532;52.480;13.354;2022-08-01T05:12:53;21.70;97.20
5027;DHT22;2532;52.480;13.354;2022-08-01T05:15:20;21.70;97.30
5027;DHT22;2532;52.480;13.354;2022-08-01T05:17:47;21.70;97.40
5027;DHT22;2532;52.480;13.354;2022-08-01T05:20:15;21.70;97.50
5027;DHT22;2532;52.480;13.354;2022-08-01T05:22:42;21.70;97.60
5027;DHT22;2532;52.480;13.354;2022-08-01T05:25:09;21.70;97.70
5027;DHT22;2532;52.480;13.354;2022-08-01T05:27:36;21.70;97.80
5027;DHT22;2532;52.480;13.354;2022-08-01T05:30:06;21.70;97.80
5027;DHT22;2532;52.480;13.354;2022-08-01T05:32:33;21.70;97.90
5027;DHT22;2532;52.480;13.354;2022-08-01T05:35:00;21.70;97.90
5027;DHT22;2532;52.480;13.354;2022-08-01T05:37:28;21.80;98.00
5027;DHT22;2532;52.480;13.354;2022-08-01T05:39:55;21.80;98.00
5027;DHT22;2532;52.480;13.354;2022-08-01T05:42:22;21.80;97.90
5027;DHT22;2532;52.480;13.354;2022-08-01T05:44:49;21.80;98.00
5027;DHT22;2532;52.480;13.354;2022-08-01T05:47:16;21.80;98.00
5027;DHT22;2532;52.480;13.354;2022-08-01T05:49:43;21.90;98.00
5027;DHT22;2532;52.480;13.354;2022-08-01T05:52:10;21.90;98.00
5027;DHT22;2532;52.480;13.354;2022-08-01T05:54:38;22.00;97.90
5027;DHT22;2532;52.480;13.354;2022-08-01T05:57:06;22.00;97.80
5027;DHT22;2532;52.480;13.354;2022-08-01T05:59:33;22.00;97.70
5027;DHT22;2532;52.480;13.354;2022-08-01T06:01:59;22.00;97.70
5027;DHT22;2532;52.480;13.354;2022-08-01T06:04:26;22.00;97.90
5027;DHT22;2532;52.480;13.354;2022-08-01T06:06:53;22.00;97.80
5027;DHT22;2532;52.480;13.354;2022-08-01T06:09:20;22.00;98.00
5027;DHT22;2532;52.480;13.354;2022-08-01T06:11:48;21.90;98.10
5027;DHT22;2532;52.480;13.354;2022-08-01T06:14:15;21.90;98.20
5027;DHT22;2532;52.480;13.354;2022-08-01T06:16:42;21.80;98.30
5027;DHT22;2532;52.480;13.354;2022-08-01T06:19:09;21.80;98.40
5027;DHT22;2532;52.480;13.354;2022-08-01T06:21:35;21.70;98.50
5027;DHT22;2532;52.480;13.354;2022-08-01T06:24:03;21.70;98.80
5027;DHT22;2532;52.480;13.354;2022-08-01T06:26:30;21.70;99.00
5027;DHT22;2532;52.480;13.354;2022-08-01T06:28:59;21.70;99.50
5027;DHT22;2532;52.480;13.354;2022-08-01T06:31:25;21.70;99.80
5027;DHT22;2532;52.480;13.354;2022-08-01T06:33:52;21.60;99.90
5027;DHT22;2532;52.480;13.354;2022-08-01T06:36:19;21.70;99.90
5027;DHT22;2532;52.480;13.354;2022-08-01T06:38:46;21.60;99.90
5027;DHT22;2532;52.480;13.354;2022-08-01T06:41:13;21.60;99.90
5027;DHT22;2532;52.480;13.354;2022-08-01T06:43:40;21.70;99.90
5027;DHT22;2532;52.480;13.354;2022-08-01T06:46:08;21.70;99.90
5027;DHT22;2532;52.480;13.354;2022-08-01T06:48:35;21.80;99.90
5027;DHT22;2532;52.480;13.354;2022-08-01T06:51:04;21.80;99.90
5027;DHT22;2532;52.480;13.354;2022-08-01T06:53:35;21.80;99.90
5027;DHT22;2532;52.480;13.354;2022-08-01T06:56:03;21.90;99.90
5027;DHT22;2532;52.480;13.354;2022-08-01T06:58:30;21.90;99.90
5027;DHT22;2532;52.480;13.354;2022-08-01T07:00:57;22.00;99.90
5027;DHT22;2532;52.480;13.354;2022-08-01T07:03:25;22.00;99.90
5027;DHT22;2532;52.480;13.354;2022-08-01T07:05:52;22.10;99.40
5027;DHT22;2532;52.480;13.354;2022-08-01T07:08:19;22.10;99.40
5027;DHT22;2532;52.480;13.354;2022-08-01T07:10:47;22.10;99.50
5027;DHT22;2532;52.480;13.354;2022-08-01T07:13:14;22.10;99.50
5027;DHT22;2532;52.480;13.354;2022-08-01T07:15:45;22.30;99.40
5027;DHT22;2532;52.480;13.354;2022-08-01T07:18:12;22.20;99.20
5027;DHT22;2532;52.480;13.354;2022-08-01T07:20:40;22.20;99.00
5027;DHT22;2532;52.480;13.354;2022-08-01T07:23:08;22.20;98.90
5027;DHT22;2532;52.480;13.354;2022-08-01T07:25:35;22.20;99.00
5027;DHT22;2532;52.480;13.354;2022-08-01T07:28:02;22.20;99.10
5027;DHT22;2532;52.480;13.354;2022-08-01T07:30:29;22.20;99.00
5027;DHT22;2532;52.480;13.354;2022-08-01T07:32:56;22.20;98.90
5027;DHT22;2532;52.480;13.354;2022-08-01T07:35:23;22.20;98.80
5027;DHT22;2532;52.480;13.354;2022-08-01T07:37:51;22.20;98.70
5027;DHT22;2532;52.480;13.354;2022-08-01T07:40:19;22.20;98.40
5027;DHT22;2532;52.480;13.354;2022-08-01T07:42:46;22.20;98.30
5027;DHT22;2532;52.480;13.354;2022-08-01T07:45:14;22.30;98.20
5027;DHT22;2532;52.480;13.354;2022-08-01T07:47:41;22.30;98.00
5027;DHT22;2532;52.480;13.354;2022-08-01T07:50:08;22.30;96.90
5027;DHT22;2532;52.480;13.354;2022-08-01T07:52:35;22.30;96.30
5027;DHT22;2532;52.480;13.354;2022-08-01T07:55:05;22.30;96.30
5027;DHT22;2532;52.480;13.354;2022-08-01T07:57:32;22.30;96.30
5027;DHT22;2532;52.480;13.354;2022-08-01T08:00:00;22.40;96.50
5027;DHT22;2532;52.480;13.354;2022-08-01T08:02:27;22.30;96.20
5027;DHT22;2532;52.480;13.354;2022-08-01T08:04:54;22.40;96.20
5027;DHT22;2532;52.480;13.354;2022-08-01T08:07:21;22.50;96.30
5027;DHT22;2532;52.480;13.354;2022-08-01T08:09:47;22.50;96.10
5027;DHT22;2532;52.480;13.354;2022-08-01T08:12:16;22.50;96.10
5027;DHT22;2532;52.480;13.354;2022-08-01T08:14:42;22.50;96.00
5027;DHT22;2532;52.480;13.354;2022-08-01T08:17:09;22.50;96.10
5027;DHT22;2532;52.480;13.354;2022-08-01T08:19:36;22.40;95.80
5027;DHT22;2532;52.480;13.354;2022-08-01T08:22:05;22.40;95.40
5027;DHT22;2532;52.480;13.354;2022-08-01T08:24:31;22.30;95.50
5027;DHT22;2532;52.480;13.354;2022-08-01T08:26:59;22.30;95.40
5027;DHT22;2532;52.480;13.354;2022-08-01T08:29:29;22.40;95.10
5027;DHT22;2532;52.480;13.354;2022-08-01T08:31:58;22.40;95.00
5027;DHT22;2532;52.480;13.354;2022-08-01T08:34:27;22.40;95.00
5027;DHT22;2532;52.480;13.354;2022-08-01T08:36:55;22.40;95.10
5027;DHT22;2532;52.480;13.354;2022-08-01T08:39:23;22.40;95.20
5027;DHT22;2532;52.480;13.354;2022-08-01T08:41:50;22.40;94.90
5027;DHT22;2532;52.480;13.354;2022-08-01T08:44:18;22.40;95.00
5027;DHT22;2532;52.480;13.354;2022-08-01T08:46:49;22.50;94.90
5027;DHT22;2532;52.480;13.354;2022-08-01T08:49:19;22.60;94.80
5027;DHT22;2532;52.480;13.354;2022-08-01T08:51:48;22.60;94.40
5027;DHT22;2532;52.480;13.354;2022-08-01T08:54:17;22.60;94.10
5027;DHT22;2532;52.480;13.354;2022-08-01T08:56:46;22.70;94.00
5027;DHT22;2532;52.480;13.354;2022-08-01T08:59:13;22.90;93.70
5027;DHT22;2532;52.480;13.354;2022-08-01T09:01:40;22.90;93.40
5027;DHT22;2532;52.480;13.354;2022-08-01T09:04:09;23.10;93.40
5027;DHT22;2532;52.480;13.354;2022-08-01T09:06:36;23.20;93.10
5027;DHT22;2532;52.480;13.354;2022-08-01T09:09:03;23.40;92.90
5027;DHT22;2532;52.480;13.354;2022-08-01T09:11:30;23.40;92.30
5027;DHT22;2532;52.480;13.354;2022-08-01T09:14:07;23.30;91.90
5027;DHT22;2532;52.480;13.354;2022-08-01T09:16:35;23.30;92.10
5027;DHT22;2532;52.480;13.354;2022-08-01T09:19:12;23.40;92.30
5027;DHT22;2532;52.480;13.354;2022-08-01T09:21:40;23.30;92.10
5027;DHT22;2532;52.480;13.354;2022-08-01T09:24:21;23.40;92.20
5027;DHT22;2532;52.480;13.354;2022-08-01T09:26:48;23.30;92.30
5027;DHT22;2532;52.480;13.354;2022-08-01T09:29:22;23.30;92.30
5027;DHT22;2532;52.480;13.354;2022-08-01T09:31:49;23.30;92.60
5027;DHT22;2532;52.480;13.354;2022-08-01T09:34:24;23.30;92.60
5027;DHT22;2532;52.480;13.354;2022-08-01T09:36:52;23.30;92.50
5027;DHT22;2532;52.480;13.354;2022-08-01T09:39:22;23.30;92.80
5027;DHT22;2532;52.480;13.354;2022-08-01T09:41:49;23.30;92.80
5027;DHT22;2532;52.480;13.354;2022-08-01T09:44:17;23.40;92.80
5027;DHT22;2532;52.480;13.354;2022-08-01T09:46:51;23.50;92.50
5027;DHT22;2532;52.480;13.354;2022-08-01T09:49:30;23.60;92.40
5027;DHT22;2532;52.480;13.354;2022-08-01T09:51:58;23.50;92.50
5027;DHT22;2532;52.480;13.354;2022-08-01T09:54:31;23.50;92.50
5027;DHT22;2532;52.480;13.354;2022-08-01T09:57:09;23.50;92.40
5027;DHT22;2532;52.480;13.354;2022-08-01T09:59:36;23.40;92.40
5027;DHT22;2532;52.480;13.354;2022-08-01T10:02:06;23.40;92.50
5027;DHT22;2532;52.480;13.354;2022-08-01T10:04:35;23.30;92.60
5027;DHT22;2532;52.480;13.354;2022-08-01T10:07:06;23.30;92.60
5027;DHT22;2532;52.480;13.354;2022-08-01T10:09:35;23.30;92.60
5027;DHT22;2532;52.480;13.354;2022-08-01T10:12:03;23.40;92.50
5027;DHT22;2532;52.480;13.354;2022-08-01T10:14:31;23.30;92.10
5027;DHT22;2532;52.480;13.354;2022-08-01T10:16:59;23.40;92.10
5027;DHT22;2532;52.480;13.354;2022-08-01T10:19:27;23.40;92.00
5027;DHT22;2532;52.480;13.354;2022-08-01T10:21:56;23.40;92.10
5027;DHT22;2532;52.480;13.354;2022-08-01T10:24:26;23.40;92.20
5027;DHT22;2532;52.480;13.354;2022-08-01T10:26:56;23.50;92.20
5027;DHT22;2532;52.480;13.354;2022-08-01T10:29:27;23.50;92.00
5027;DHT22;2532;52.480;13.354;2022-08-01T10:31:58;23.50;92.20
5027;DHT22;2532;52.480;13.354;2022-08-01T10:34:25;23.50;92.30
5027;DHT22;2532;52.480;13.354;2022-08-01T10:36:52;23.40;92.50
5027;DHT22;2532;52.480;13.354;2022-08-01T10:39:20;23.50;92.60
5027;DHT22;2532;52.480;13.354;2022-08-01T10:41:48;23.50;92.40
5027;DHT22;2532;52.480;13.354;2022-08-01T10:44:15;23.50;92.40
5027;DHT22;2532;52.480;13.354;2022-08-01T10:46:48;23.50;92.30
5027;DHT22;2532;52.480;13.354;2022-08-01T10:49:17;23.50;92.50
5027;DHT22;2532;52.480;13.354;2022-08-01T10:51:46;23.50;92.40
5027;DHT22;2532;52.480;13.354;2022-08-01T10:54:13;23.50;92.40
5027;DHT22;2532;52.480;13.354;2022-08-01T10:56:44;23.50;92.40
5027;DHT22;2532;52.480;13.354;2022-08-01T10:59:15;23.60;92.50
5027;DHT22;2532;52.480;13.354;2022-08-01T11:01:55;23.60;92.30
5027;DHT22;2532;52.480;13.354;2022-08-01T11:04:32;23.60;92.10
5027;DHT22;2532;52.480;13.354;2022-08-01T11:07:04;23.50;92.10
5027;DHT22;2532;52.480;13.354;2022-08-01T11:09:38;23.60;92.00
5027;DHT22;2532;52.480;13.354;2022-08-01T11:12:09;23.60;91.60
5027;DHT22;2532;52.480;13.354;2022-08-01T11:17:42;23.60;91.70
5027;DHT22;2532;52.480;13.354;2022-08-01T11:20:14;23.60;91.60
5027;DHT22;2532;52.480;13.354;2022-08-01T11:26:20;23.70;91.50
5027;DHT22;2532;52.480;13.354;2022-08-01T11:31:48;23.80;91.60
5027;DHT22;2532;52.480;13.354;2022-08-01T11:34:15;23.60;91.50
5027;DHT22;2532;52.480;13.354;2022-08-01T11:36:42;23.60;91.60
5027;DHT22;2532;52.480;13.354;2022-08-01T11:39:15;23.50;91.90
5027;DHT22;2532;52.480;13.354;2022-08-01T11:41:44;23.50;92.70
5027;DHT22;2532;52.480;13.354;2022-08-01T11:44:18;23.40;93.70
5027;DHT22;2532;52.480;13.354;2022-08-01T11:46:57;23.20;94.40
5027;DHT22;2532;52.480;13.354;2022-08-01T11:52:18;22.90;94.80
5027;DHT22;2532;52.480;13.354;2022-08-01T11:54:47;22.80;95.00
5027;DHT22;2532;52.480;13.354;2022-08-01T11:57:18;22.80;94.90
5027;DHT22;2532;52.480;13.354;2022-08-01T11:59:47;22.80;95.20
5027;DHT22;2532;52.480;13.354;2022-08-01T12:02:26;22.90;94.90
5027;DHT22;2532;52.480;13.354;2022-08-01T12:04:55;22.90;94.40
5027;DHT22;2532;52.480;13.354;2022-08-01T12:07:23;23.00;94.40
5027;DHT22;2532;52.480;13.354;2022-08-01T12:09:58;23.10;93.80
5027;DHT22;2532;52.480;13.354;2022-08-01T12:12:26;23.20;93.60
5027;DHT22;2532;52.480;13.354;2022-08-01T12:14:54;23.30;92.90
5027;DHT22;2532;52.480;13.354;2022-08-01T12:17:29;23.40;92.20
5027;DHT22;2532;52.480;13.354;2022-08-01T12:19:57;23.40;91.90
5027;DHT22;2532;52.480;13.354;2022-08-01T12:22:24;23.60;91.90
5027;DHT22;2532;52.480;13.354;2022-08-01T12:24:52;23.70;92.20
5027;DHT22;2532;52.480;13.354;2022-08-01T12:27:26;23.70;91.50
5027;DHT22;2532;52.480;13.354;2022-08-01T12:29:54;23.90;91.50
5027;DHT22;2532;52.480;13.354;2022-08-01T12:32:26;24.00;91.10
5027;DHT22;2532;52.480;13.354;2022-08-01T12:34:55;24.00;91.20
5027;DHT22;2532;52.480;13.354;2022-08-01T12:37:23;24.20;91.00
5027;DHT22;2532;52.480;13.354;2022-08-01T12:39:50;24.30;90.80
5027;DHT22;2532;52.480;13.354;2022-08-01T12:42:17;24.40;90.40
5027;DHT22;2532;52.480;13.354;2022-08-01T12:44:45;24.40;90.30
5027;DHT22;2532;52.480;13.354;2022-08-01T12:47:14;24.50;90.30
5027;DHT22;2532;52.480;13.354;2022-08-01T12:49:43;24.60;89.60
5027;DHT22;2532;52.480;13.354;2022-08-01T12:52:12;24.60;88.90
5027;DHT22;2532;52.480;13.354;2022-08-01T12:55:02;24.80;89.00
5027;DHT22;2532;52.480;13.354;2022-08-01T12:57:29;24.80;88.80
5027;DHT22;2532;52.480;13.354;2022-08-01T13:00:06;24.90;89.20
5027;DHT22;2532;52.480;13.354;2022-08-01T13:02:33;25.00;88.80
5027;DHT22;2532;52.480;13.354;2022-08-01T13:05:00;25.10;88.90
5027;DHT22;2532;52.480;13.354;2022-08-01T13:07:37;25.20;88.30
5027;DHT22;2532;52.480;13.354;2022-08-01T13:10:04;25.30;88.10
5027;DHT22;2532;52.480;13.354;2022-08-01T13:12:32;25.30;87.90
5027;DHT22;2532;52.480;13.354;2022-08-01T13:14:58;25.30;88.00
5027;DHT22;2532;52.480;13.354;2022-08-01T13:17:32;25.40;88.10
5027;DHT22;2532;52.480;13.354;2022-08-01T13:20:00;25.40;87.90
5027;DHT22;2532;52.480;13.354;2022-08-01T13:22:33;25.30;87.90
5027;DHT22;2532;52.480;13.354;2022-08-01T13:25:12;25.10;87.80
5027;DHT22;2532;52.480;13.354;2022-08-01T13:27:39;25.10;88.80
5027;DHT22;2532;52.480;13.354;2022-08-01T13:30:13;24.90;88.70
5027;DHT22;2532;52.480;13.354;2022-08-01T13:32:41;24.90;88.40
5027;DHT22;2532;52.480;13.354;2022-08-01T13:35:10;24.90;88.30
5027;DHT22;2532;52.480;13.354;2022-08-01T13:37:40;24.90;88.10
5027;DHT22;2532;52.480;13.354;2022-08-01T13:40:09;24.90;88.20
5027;DHT22;2532;52.480;13.354;2022-08-01T13:42:38;25.00;87.50
5027;DHT22;2532;52.480;13.354;2022-08-01T13:45:06;25.10;87.20
5027;DHT22;2532;52.480;13.354;2022-08-01T13:47:36;25.20;86.70
5027;DHT22;2532;52.480;13.354;2022-08-01T13:50:03;25.40;86.30
5027;DHT22;2532;52.480;13.354;2022-08-01T13:52:30;25.60;85.20
5027;DHT22;2532;52.480;13.354;2022-08-01T13:54:57;25.60;84.00
5027;DHT22;2532;52.480;13.354;2022-08-01T13:57:24;25.60;84.70
5027;DHT22;2532;52.480;13.354;2022-08-01T13:59:52;25.60;84.10
5027;DHT22;2532;52.480;13.354;2022-08-01T14:02:19;25.60;84.00
5027;DHT22;2532;52.480;13.354;2022-08-01T14:04:46;25.70;82.80
5027;DHT22;2532;52.480;13.354;2022-08-01T14:07:13;25.70;82.80
5027;DHT22;2532;52.480;13.354;2022-08-01T14:09:41;25.80;82.40
5027;DHT22;2532;52.480;13.354;2022-08-01T14:12:08;25.90;81.90
5027;DHT22;2532;52.480;13.354;2022-08-01T14:14:35;25.80;81.40
5027;DHT22;2532;52.480;13.354;2022-08-01T14:17:03;25.90;81.40
5027;DHT22;2532;52.480;13.354;2022-08-01T14:19:30;26.00;81.00
5027;DHT22;2532;52.480;13.354;2022-08-01T14:21:57;26.00;80.80
5027;DHT22;2532;52.480;13.354;2022-08-01T14:24:24;26.10;81.00
5027;DHT22;2532;52.480;13.354;2022-08-01T14:26:51;26.10;80.50
5027;DHT22;2532;52.480;13.354;2022-08-01T14:29:18;26.10;79.60
5027;DHT22;2532;52.480;13.354;2022-08-01T14:31:45;26.10;79.70
5027;DHT22;2532;52.480;13.354;2022-08-01T14:34:13;26.20;80.00
5027;DHT22;2532;52.480;13.354;2022-08-01T14:36:42;26.30;79.60
5027;DHT22;2532;52.480;13.354;2022-08-01T14:39:09;26.50;79.00
5027;DHT22;2532;52.480;13.354;2022-08-01T14:41:36;26.70;78.60
5027;DHT22;2532;52.480;13.354;2022-08-01T14:44:03;26.80;78.40
5027;DHT22;2532;52.480;13.354;2022-08-01T14:46:30;26.70;77.80
5027;DHT22;2532;52.480;13.354;2022-08-01T14:48:57;26.80;77.80
5027;DHT22;2532;52.480;13.354;2022-08-01T14:51:25;26.80;78.10
5027;DHT22;2532;52.480;13.354;2022-08-01T14:53:52;26.70;77.00
5027;DHT22;2532;52.480;13.354;2022-08-01T14:56:20;26.70;77.40
5027;DHT22;2532;52.480;13.354;2022-08-01T14:58:46;26.70;77.90
5027;DHT22;2532;52.480;13.354;2022-08-01T15:01:13;26.60;78.30
5027;DHT22;2532;52.480;13.354;2022-08-01T15:03:40;26.50;78.50
5027;DHT22;2532;52.480;13.354;2022-08-01T15:06:07;26.40;79.00
5027;DHT22;2532;52.480;13.354;2022-08-01T15:08:38;26.40;80.00
5027;DHT22;2532;52.480;13.354;2022-08-01T15:11:04;26.20;80.10
5027;DHT22;2532;52.480;13.354;2022-08-01T15:13:31;26.00;81.50
5027;DHT22;2532;52.480;13.354;2022-08-01T15:15:58;25.80;82.50
5027;DHT22;2532;52.480;13.354;2022-08-01T15:18:26;25.60;83.70
5027;DHT22;2532;52.480;13.354;2022-08-01T15:20:53;25.40;84.10
5027;DHT22;2532;52.480;13.354;2022-08-01T15:23:20;25.20;84.40
5027;DHT22;2532;52.480;13.354;2022-08-01T15:25:48;25.10;84.50
5027;DHT22;2532;52.480;13.354;2022-08-01T15:28:15;25.00;83.90
5027;DHT22;2532;52.480;13.354;2022-08-01T15:30:42;25.00;84.30
5027;DHT22;2532;52.480;13.354;2022-08-01T15:33:10;25.00;84.40
5027;DHT22;2532;52.480;13.354;2022-08-01T15:35:38;25.10;84.30
5027;DHT22;2532;52.480;13.354;2022-08-01T15:38:05;25.20;83.70
5027;DHT22;2532;52.480;13.354;2022-08-01T15:40:31;25.20;83.80
5027;DHT22;2532;52.480;13.354;2022-08-01T15:43:01;25.40;83.80
5027;DHT22;2532;52.480;13.354;2022-08-01T15:45:28;25.50;83.50
5027;DHT22;2532;52.480;13.354;2022-08-01T15:47:55;25.70;83.30
5027;DHT22;2532;52.480;13.354;2022-08-01T15:50:22;25.70;82.50
5027;DHT22;2532;52.480;13.354;2022-08-01T15:52:49;25.90;82.30
5027;DHT22;2532;52.480;13.354;2022-08-01T15:55:16;26.00;82.20
5027;DHT22;2532;52.480;13.354;2022-08-01T15:57:42;26.10;81.60
5027;DHT22;2532;52.480;13.354;2022-08-01T16:00:11;26.30;81.00
5027;DHT22;2532;52.480;13.354;2022-08-01T16:02:39;26.40;80.60
5027;DHT22;2532;52.480;13.354;2022-08-01T16:05:07;26.50;80.40
5027;DHT22;2532;52.480;13.354;2022-08-01T16:07:34;26.50;80.10